Challenger 2 — ZQCM6 — position and weather

sailwx.info

Track history (hours):
 
Tides and Currents Weather Stations Pressure Air Temp Water Temp Dewpoint Dewpoint Depression Visibility Wind Speed Wind Dir Waves Ship Positions

Challenger 2

Last reported at 2017-Nov-19 15:43 UTC. Time now 2017-Nov-22 20:37 UTC.
Position N 27°54' W 015°22'.

Length 22 m.

Type: Sailing vessel. MMSI: 235007000.

Date/timePositionNaut miles runAvg speedWind from/ knotsBaromVisibWave heightAir tempDewpointWater temp
2017-Nov-19 15:43N 27°54' W 015°22'3 6.1
2017-Nov-19 15:15N 27°57' W 015°21'2 5.6
2017-Nov-19 14:53N 27°59' W 015°21'2 4.4
2017-Nov-19 14:30N 28°00' W 015°22'2 3.5
2017-Nov-19 14:00N 28°02' W 015°22'2 3.7
2017-Nov-19 13:29N 28°04' W 015°23'2 4.1
2017-Nov-19 13:00N 28°06' W 015°24'1 3.0
2017-Nov-19 12:30N 28°07' W 015°25'1 1.1
2017-Nov-19 11:56N 28°06' W 015°24'1 1.8
2017-Nov-19 11:25N 28°07' W 015°25'1 1.2
2017-Nov-19 10:49N 28°08' W 015°26'0 0.0
2017-Nov-19 10:25N 28°08' W 015°26'0 0.0
2017-Nov-19 09:55N 28°08' W 015°26'0 0.0
2017-Nov-19 09:25N 28°08' W 015°26'0 0.0
2017-Nov-19 08:55N 28°08' W 015°26'0 0.0
2017-Nov-19 08:25N 28°08' W 015°26'0 0.0
2017-Nov-19 07:58N 28°08' W 015°26'0 0.0
2017-Nov-19 07:28N 28°08' W 015°26'0 0.0
2017-Nov-19 06:58N 28°08' W 015°26'0 0.0
2017-Nov-19 06:28N 28°08' W 015°26'0 0.0
2017-Nov-19 05:58N 28°08' W 015°26'0 0.0
2017-Nov-19 05:25N 28°08' W 015°26'0 0.0
2017-Nov-19 04:58N 28°08' W 015°26'0 0.0
2017-Nov-19 04:28N 28°08' W 015°26'0 0.0
2017-Nov-19 03:58N 28°08' W 015°26'0 0.0
2017-Nov-19 03:28N 28°08' W 015°26'0 0.0
2017-Nov-19 02:58N 28°08' W 015°26'0 0.0
2017-Nov-19 02:28N 28°08' W 015°26'0 0.0
2017-Nov-19 01:49N 28°08' W 015°26'0 0.0
2017-Nov-19 01:19N 28°08' W 015°26'0 0.0
2017-Nov-19 00:52N 28°08' W 015°26'0 0.0
2017-Nov-19 00:22N 28°08' W 015°26'0 0.0
2017-Nov-18 23:52N 28°08' W 015°26'0 0.0
2017-Nov-18 23:22N 28°08' W 015°26'0 0.0
2017-Nov-18 22:52N 28°08' W 015°26'0 0.0
2017-Nov-18 22:25N 28°08' W 015°26'0 0.0
2017-Nov-18 21:55N 28°08' W 015°26'0 0.0
2017-Nov-18 21:25N 28°08' W 015°26'0 0.0
2017-Nov-18 20:55N 28°08' W 015°26'0 0.0
2017-Nov-18 20:28N 28°08' W 015°26'0 0.0
2017-Nov-18 19:55N 28°08' W 015°26'0 0.0
2017-Nov-18 19:28N 28°08' W 015°26'0 0.0
2017-Nov-18 18:58N 28°08' W 015°26'0 0.0
2017-Nov-18 18:28N 28°08' W 015°26'0 0.0
2017-Nov-18 17:58N 28°08' W 015°26'0 0.0
2017-Nov-18 17:28N 28°08' W 015°26'0 0.0
2017-Nov-18 16:58N 28°08' W 015°26'0 0.0
2017-Nov-18 16:28N 28°08' W 015°26'0 0.0
2017-Nov-18 15:58N 28°08' W 015°26'0 0.0
2017-Nov-18 15:28N 28°08' W 015°26'0 0.0
2017-Nov-18 14:58N 28°08' W 015°26'0 0.0
2017-Nov-18 14:28N 28°08' W 015°26'0 0.0
2017-Nov-18 13:58N 28°08' W 015°26'0 0.0
2017-Nov-18 13:19N 28°08' W 015°26'0 0.0
2017-Nov-18 12:49N 28°08' W 015°26'0 0.0
2017-Nov-18 12:22N 28°08' W 015°26'0 0.0
2017-Nov-18 11:52N 28°08' W 015°26'0 0.0
2017-Nov-18 11:22N 28°08' W 015°26'0 0.0
2017-Nov-18 10:52N 28°08' W 015°26'0 0.0
2017-Nov-18 10:22N 28°08' W 015°26'0 0.0
2017-Nov-18 09:55N 28°08' W 015°26'0 0.0
2017-Nov-18 09:22N 28°08' W 015°26'0 0.0
2017-Nov-18 08:55N 28°08' W 015°26'0 0.0
2017-Nov-18 08:25N 28°08' W 015°26'0 0.0
2017-Nov-18 07:55N 28°08' W 015°26'0 0.0
2017-Nov-18 07:25N 28°08' W 015°26'0 0.0
2017-Nov-18 06:58N 28°08' W 015°26'0 0.0
2017-Nov-18 06:25N 28°08' W 015°26'0 0.0
2017-Nov-18 05:58N 28°08' W 015°26'0 0.0
2017-Nov-18 05:28N 28°08' W 015°26'0 0.0
2017-Nov-18 04:58N 28°08' W 015°26'0 0.0
2017-Nov-18 04:28N 28°08' W 015°26'0 0.0
2017-Nov-18 03:58N 28°08' W 015°26'0 0.0
2017-Nov-18 03:28N 28°08' W 015°26'0 0.0
2017-Nov-18 02:58N 28°08' W 015°26'0 0.0
2017-Nov-18 02:19N 28°08' W 015°26'0 0.0
2017-Nov-18 01:49N 28°08' W 015°26'0 0.0
2017-Nov-18 01:19N 28°08' W 015°26'0 0.0
2017-Nov-18 00:49N 28°08' W 015°26'0 0.0
2017-Nov-18 00:22N 28°08' W 015°26'0 0.0
2017-Nov-17 23:52N 28°08' W 015°26'0 0.0
2017-Nov-17 23:19N 28°08' W 015°26'0 0.0
2017-Nov-17 22:52N 28°08' W 015°26'0 0.0
2017-Nov-17 22:22N 28°08' W 015°26'0 0.0
2017-Nov-17 21:52N 28°08' W 015°26'0 0.0
2017-Nov-17 21:25N 28°08' W 015°26'0 0.0
2017-Nov-17 20:55N 28°08' W 015°26'0 0.0
2017-Nov-17 20:25N 28°08' W 015°26'0 0.0
2017-Nov-17 19:55N 28°08' W 015°26'0 0.0
2017-Nov-17 19:25N 28°08' W 015°26'0 0.0
2017-Nov-17 18:58N 28°08' W 015°26'0 0.0
2017-Nov-17 18:28N 28°08' W 015°26'0 0.0
2017-Nov-17 17:55N 28°08' W 015°26'0 0.0
2017-Nov-17 17:28N 28°08' W 015°26'0 0.0
2017-Nov-17 16:55N 28°08' W 015°26'0 0.0
2017-Nov-17 16:28N 28°08' W 015°26'0 0.0
2017-Nov-17 15:55N 28°08' W 015°26'0 0.0
2017-Nov-17 15:28N 28°08' W 015°26'0 0.0
2017-Nov-17 14:58N 28°08' W 015°26'0 0.0
2017-Nov-17 14:28N 28°08' W 015°26'0 0.0
2017-Nov-17 13:58N 28°08' W 015°26'0 0.0
2017-Nov-17 13:28N 28°08' W 015°26'0 0.0
2017-Nov-17 12:49N 28°08' W 015°26'0 0.0
2017-Nov-17 12:19N 28°08' W 015°26'0 0.2
2017-Nov-17 12:00N 28°08' W 015°25'0 0.1
2017-Nov-17 11:23N 28°08' W 015°26'0 0.0
2017-Nov-17 10:56N 28°08' W 015°26'0 0.0
2017-Nov-17 10:23N 28°08' W 015°26'0 0.0
2017-Nov-17 09:56N 28°08' W 015°26'0 0.0
2017-Nov-17 09:26N 28°08' W 015°26'0 0.0
2017-Nov-17 08:56N 28°08' W 015°26'0 0.0
2017-Nov-17 08:23N 28°08' W 015°26'0 0.0
2017-Nov-17 07:56N 28°08' W 015°26'0 0.0
2017-Nov-17 07:29N 28°08' W 015°26'0 0.0
2017-Nov-17 06:59N 28°08' W 015°26'0 0.0
2017-Nov-17 06:29N 28°08' W 015°26'0 0.0
2017-Nov-17 05:59N 28°08' W 015°26'0 0.0
2017-Nov-17 05:29N 28°08' W 015°26'0 0.0
2017-Nov-17 04:59N 28°08' W 015°26'0 0.0
2017-Nov-17 04:29N 28°08' W 015°26'0 0.0
2017-Nov-17 03:59N 28°08' W 015°26'0 0.0
2017-Nov-17 03:29N 28°08' W 015°26'0 0.0
2017-Nov-17 02:59N 28°08' W 015°26'0 0.0
2017-Nov-17 02:29N 28°08' W 015°26'0 0.0
2017-Nov-17 01:59N 28°08' W 015°26'0 0.0
2017-Nov-17 01:20N 28°08' W 015°26'0 0.0
2017-Nov-17 00:50N 28°08' W 015°26'0 0.0
2017-Nov-17 00:17N 28°08' W 015°26'0 0.0
2017-Nov-16 23:53N 28°08' W 015°26'0 0.0
2017-Nov-16 23:23N 28°08' W 015°26'0 0.0
2017-Nov-16 22:53N 28°08' W 015°26'0 0.0
2017-Nov-16 22:23N 28°08' W 015°26'0 0.0
2017-Nov-16 21:56N 28°08' W 015°26'0 0.0
2017-Nov-16 21:26N 28°08' W 015°26'0 0.0
2017-Nov-16 20:56N 28°08' W 015°26'0 0.0
2017-Nov-16 20:23N 28°08' W 015°26'0 0.0
2017-Nov-16 19:56N 28°08' W 015°26'0 0.0
2017-Nov-16 19:29N 28°08' W 015°26'0 0.0
2017-Nov-16 18:59N 28°08' W 015°26'0 0.0
2017-Nov-16 18:29N 28°08' W 015°26'0 0.0
2017-Nov-16 17:59N 28°08' W 015°26'0 0.0
2017-Nov-16 17:29N 28°08' W 015°26'0 0.0
2017-Nov-16 16:59N 28°08' W 015°26'0 0.0
2017-Nov-16 16:29N 28°08' W 015°26'0 0.0
2017-Nov-16 15:59N 28°08' W 015°26'0 0.0
2017-Nov-16 15:29N 28°08' W 015°26'0 0.0
2017-Nov-16 14:59N 28°08' W 015°26'0 0.0
2017-Nov-16 14:29N 28°08' W 015°26'0 0.0
2017-Nov-16 13:59N 28°08' W 015°26'0 0.0
2017-Nov-16 13:29N 28°08' W 015°26'0 0.0
2017-Nov-16 12:50N 28°08' W 015°26'0 0.0
2017-Nov-16 12:20N 28°08' W 015°26'0 0.0
2017-Nov-16 11:53N 28°08' W 015°26'0 0.0
2017-Nov-16 11:23N 28°08' W 015°26'0 0.0
2017-Nov-16 10:53N 28°08' W 015°26'0 0.0
2017-Nov-16 10:23N 28°08' W 015°26'0 0.0
2017-Nov-16 09:53N 28°08' W 015°26'0 0.0
2017-Nov-16 09:26N 28°08' W 015°26'0 0.0
2017-Nov-16 08:53N 28°08' W 015°26'0 0.0
2017-Nov-16 08:26N 28°08' W 015°26'0 0.0
2017-Nov-16 07:56N 28°08' W 015°26'0 0.0
2017-Nov-16 07:26N 28°08' W 015°26'0 0.0
2017-Nov-16 06:59N 28°08' W 015°26'0 0.0
2017-Nov-16 06:29N 28°08' W 015°26'0 0.0
2017-Nov-16 05:59N 28°08' W 015°26'0 0.0
2017-Nov-16 05:29N 28°08' W 015°26'0 0.0
2017-Nov-16 04:59N 28°08' W 015°26'0 0.0
2017-Nov-16 04:29N 28°08' W 015°26'0 0.0
2017-Nov-16 03:59N 28°08' W 015°26'0 0.0
2017-Nov-16 03:29N 28°08' W 015°26'0 0.0
2017-Nov-16 02:59N 28°08' W 015°26'0 0.0
2017-Nov-16 02:29N 28°08' W 015°26'0 0.0
2017-Nov-16 01:59N 28°08' W 015°26'0 0.0
2017-Nov-16 01:29N 28°08' W 015°26'0 0.0
2017-Nov-16 00:50N 28°08' W 015°26'0 0.0
2017-Nov-16 00:20N 28°08' W 015°26'0 0.0
2017-Nov-15 23:53N 28°08' W 015°26'0 0.0
2017-Nov-15 23:23N 28°08' W 015°26'0 0.0
2017-Nov-15 22:53N 28°08' W 015°26'0 0.0
2017-Nov-15 22:23N 28°08' W 015°26'0 0.0
2017-Nov-15 21:53N 28°08' W 015°26'0 0.0
2017-Nov-15 21:23N 28°08' W 015°26'0 0.0
2017-Nov-15 20:56N 28°08' W 015°26'0 0.0
2017-Nov-15 20:26N 28°08' W 015°26'0 0.0
2017-Nov-15 19:56N 28°08' W 015°26'0 0.0
2017-Nov-15 19:26N 28°08' W 015°26'0 0.0
2017-Nov-15 18:59N 28°08' W 015°26'0 0.0
2017-Nov-15 18:29N 28°08' W 015°26'0 0.0
2017-Nov-15 17:59N 28°08' W 015°26'0 0.0
2017-Nov-15 17:29N 28°08' W 015°26'0 0.0
2017-Nov-15 16:59N 28°08' W 015°26'0 0.0
2017-Nov-15 16:29N 28°08' W 015°26'0 0.0
2017-Nov-15 15:59N 28°08' W 015°26'0 0.0
2017-Nov-15 15:26N 28°08' W 015°26'0 0.0
2017-Nov-15 14:59N 28°08' W 015°26'0 0.0
2017-Nov-15 14:29N 28°08' W 015°26'0 0.0
2017-Nov-15 13:59N 28°08' W 015°26'0 0.0
2017-Nov-15 13:29N 28°08' W 015°26'0 0.0
2017-Nov-15 12:59N 28°08' W 015°26'0 0.0
2017-Nov-15 12:20N 28°08' W 015°26'0 0.0
2017-Nov-15 11:50N 28°08' W 015°26'0 0.0
2017-Nov-15 11:23N 28°08' W 015°26'0 0.0
2017-Nov-15 10:50N 28°08' W 015°26'0 0.0
2017-Nov-15 10:23N 28°08' W 015°26'0 0.0
2017-Nov-15 09:53N 28°08' W 015°26'0 0.0
2017-Nov-15 09:08N 28°08' W 015°26'0 0.0
2017-Nov-15 08:56N 28°08' W 015°26'0 0.0
2017-Nov-15 08:26N 28°08' W 015°26'0 0.0
2017-Nov-15 07:56N 28°08' W 015°26'0 0.0
2017-Nov-15 07:26N 28°08' W 015°26'0 0.0
2017-Nov-15 06:56N 28°08' W 015°26'0 0.0
2017-Nov-15 06:29N 28°08' W 015°26'0 0.0
2017-Nov-15 05:59N 28°08' W 015°26'0 0.0
2017-Nov-15 05:29N 28°08' W 015°26'0 0.0
2017-Nov-15 04:59N 28°08' W 015°26'0 0.0
2017-Nov-15 04:29N 28°08' W 015°26'0 0.0
2017-Nov-15 03:59N 28°08' W 015°26'0 0.0
2017-Nov-15 03:29N 28°08' W 015°26'0 0.0
2017-Nov-15 02:59N 28°08' W 015°26'0 0.0
2017-Nov-15 02:29N 28°08' W 015°26'0 0.0
2017-Nov-15 01:59N 28°08' W 015°26'0 0.0
2017-Nov-15 01:29N 28°08' W 015°26'0 0.0
2017-Nov-15 00:59N 28°08' W 015°26'0 0.0
2017-Nov-15 00:29N 28°08' W 015°26'0 0.0
2017-Nov-14 23:50N 28°08' W 015°26'0 0.0
2017-Nov-14 23:20N 28°08' W 015°26'0 0.0
2017-Nov-14 22:53N 28°08' W 015°26'0 0.0
2017-Nov-14 22:23N 28°08' W 015°26'0 0.0
2017-Nov-14 21:53N 28°08' W 015°26'0 0.0
2017-Nov-14 21:23N 28°08' W 015°26'0 0.0
2017-Nov-14 20:53N 28°08' W 015°26'0 0.0
2017-Nov-14 20:23N 28°08' W 015°26'0 0.0
2017-Nov-14 19:56N 28°08' W 015°26'0 0.0
2017-Nov-14 19:26N 28°08' W 015°26'0 0.0
2017-Nov-14 18:56N 28°08' W 015°26'0 0.0
2017-Nov-14 18:26N 28°08' W 015°26'0 0.0
2017-Nov-14 17:59N 28°08' W 015°26'0 0.0
2017-Nov-14 17:29N 28°08' W 015°26'0 0.0
2017-Nov-14 16:59N 28°08' W 015°26'0 0.0
2017-Nov-14 16:26N 28°08' W 015°26'0 0.0
2017-Nov-14 15:59N 28°08' W 015°26'0 0.0
2017-Nov-14 15:29N 28°08' W 015°26'0 0.0
2017-Nov-14 14:59N 28°08' W 015°26'0 0.0
2017-Nov-14 14:29N 28°08' W 015°26'0 0.0
2017-Nov-14 13:59N 28°08' W 015°26'0 0.0
2017-Nov-14 13:29N 28°08' W 015°26'0 0.0
2017-Nov-14 12:50N 28°08' W 015°26'0 0.0
2017-Nov-14 12:29N 28°08' W 015°26'0 0.0
2017-Nov-14 11:35N 28°08' W 015°26'0 0.0
2017-Nov-14 11:20N 28°08' W 015°26'0 0.0
2017-Nov-14 10:47N 28°08' W 015°26'0 0.0
2017-Nov-14 10:23N 28°08' W 015°26'0 0.0
2017-Nov-14 09:53N 28°08' W 015°26'0 0.0
2017-Nov-14 09:23N 28°08' W 015°26'0 0.0
2017-Nov-14 08:53N 28°08' W 015°26'0 0.0
2017-Nov-14 08:26N 28°08' W 015°26'0 0.0
2017-Nov-14 07:53N 28°08' W 015°26'0 0.0
2017-Nov-14 07:26N 28°08' W 015°26'0 0.0
2017-Nov-14 06:56N 28°08' W 015°26'0 0.0
2017-Nov-14 06:26N 28°08' W 015°26'0 0.0
2017-Nov-14 05:56N 28°08' W 015°26'0 0.0
2017-Nov-14 05:29N 28°08' W 015°26'0 0.0
2017-Nov-14 04:59N 28°08' W 015°26'0 0.0
2017-Nov-14 04:29N 28°08' W 015°26'0 0.0
2017-Nov-14 03:59N 28°08' W 015°26'0 0.0
2017-Nov-14 03:29N 28°08' W 015°26'0 0.0
2017-Nov-14 02:59N 28°08' W 015°26'0 0.0
2017-Nov-14 02:29N 28°08' W 015°26'0 0.0
2017-Nov-14 01:59N 28°08' W 015°26'0 0.0
2017-Nov-14 01:29N 28°08' W 015°26'0 0.0
2017-Nov-14 00:59N 28°08' W 015°26'0 0.0
2017-Nov-14 00:29N 28°08' W 015°26'0 0.0
2017-Nov-13 23:59N 28°08' W 015°26'0 0.0
2017-Nov-13 23:29N 28°08' W 015°26'0 0.0
2017-Nov-13 22:50N 28°08' W 015°26'0 0.0
2017-Nov-13 22:20N 28°08' W 015°26'0 0.0
2017-Nov-13 21:53N 28°08' W 015°26'0 0.0
2017-Nov-13 02:00N 28°08' W 015°26'0 0.0
2017-Nov-13 01:30N 28°08' W 015°26'0 0.0
2017-Nov-13 00:48N 28°08' W 015°26'0 0.0
2017-Nov-13 00:30N 28°08' W 015°26'0 0.0
2017-Nov-13 00:00N 28°08' W 015°26'0 0.0
2017-Nov-12 23:30N 28°08' W 015°26'0 0.0
2017-Nov-12 22:51N 28°08' W 015°26'0 0.0
2017-Nov-12 22:21N 28°08' W 015°26'0 0.0
2017-Nov-12 21:51N 28°08' W 015°26'0 0.0
2017-Nov-12 21:24N 28°08' W 015°26'0 0.0
2017-Nov-12 20:54N 28°08' W 015°26'0 0.0
2017-Nov-12 20:24N 28°08' W 015°26'0 0.0
2017-Nov-12 19:54N 28°08' W 015°26'0 0.0
2017-Nov-12 19:24N 28°08' W 015°26'0 0.0
2017-Nov-12 18:57N 28°08' W 015°26'0 0.0
2017-Nov-12 18:27N 28°08' W 015°26'0 0.0
2017-Nov-12 17:57N 28°08' W 015°26'0 0.0
2017-Nov-12 17:27N 28°08' W 015°26'0 0.0
2017-Nov-12 16:57N 28°08' W 015°26'0 0.0
2017-Nov-12 16:30N 28°08' W 015°26'0 0.0
2017-Nov-12 15:57N 28°08' W 015°26'0 0.0
2017-Nov-12 15:30N 28°08' W 015°26'0 0.0
2017-Nov-12 15:00N 28°08' W 015°26'0 0.0
2017-Nov-12 14:30N 28°08' W 015°26'0 0.0
2017-Nov-12 14:00N 28°08' W 015°26'0 0.0
2017-Nov-12 13:30N 28°08' W 015°26'0 0.0
2017-Nov-12 13:00N 28°08' W 015°26'0 0.0
2017-Nov-12 12:30N 28°08' W 015°26'0 0.0
2017-Nov-12 12:00N 28°08' W 015°26'0 0.0
2017-Nov-12 11:30N 28°08' W 015°26'0 0.0
2017-Nov-12 11:00N 28°08' W 015°26'0 0.0
2017-Nov-12 10:21N 28°08' W 015°26'0 0.0
2017-Nov-12 09:51N 28°08' W 015°26'0 0.0
2017-Nov-12 09:21N 28°08' W 015°26'0 0.0
2017-Nov-12 08:54N 28°08' W 015°26'0 0.0
2017-Nov-12 08:24N 28°08' W 015°26'0 0.0
2017-Nov-12 07:54N 28°08' W 015°26'0 0.0
2017-Nov-12 07:24N 28°08' W 015°26'0 0.0
2017-Nov-12 06:54N 28°08' W 015°26'0 0.0
2017-Nov-12 06:24N 28°08' W 015°26'0 0.0
2017-Nov-12 05:57N 28°08' W 015°26'0 0.0
2017-Nov-12 05:27N 28°08' W 015°26'0 0.0
2017-Nov-12 04:57N 28°08' W 015°26'0 0.0
2017-Nov-12 04:27N 28°08' W 015°26'0 0.0
2017-Nov-12 04:00N 28°08' W 015°26'0 0.0
2017-Nov-12 03:30N 28°08' W 015°26'0 0.0
2017-Nov-12 03:00N 28°08' W 015°26'0 0.0
2017-Nov-12 02:30N 28°08' W 015°26'0 0.0
2017-Nov-12 02:00N 28°08' W 015°26'0 0.0
2017-Nov-12 01:30N 28°08' W 015°26'0 0.0
2017-Nov-12 01:00N 28°08' W 015°26'0 0.0
2017-Nov-12 00:30N 28°08' W 015°26'0 0.0
2017-Nov-12 00:00N 28°08' W 015°26'0 0.0
2017-Nov-11 23:30N 28°08' W 015°26'0 0.0
2017-Nov-11 23:00N 28°08' W 015°26'0 0.0
2017-Nov-11 22:30N 28°08' W 015°26'0 0.0
2017-Nov-11 21:51N 28°08' W 015°26'0 0.0
2017-Nov-11 21:21N 28°08' W 015°26'0 0.0
2017-Nov-11 20:54N 28°08' W 015°26'0 0.0
2017-Nov-11 20:24N 28°08' W 015°26'0 0.0
2017-Nov-11 19:54N 28°08' W 015°26'0 0.0
2017-Nov-11 19:21N 28°08' W 015°26'0 0.0
2017-Nov-11 18:54N 28°08' W 015°26'0 0.0
2017-Nov-11 18:24N 28°08' W 015°26'0 0.0
2017-Nov-11 17:57N 28°08' W 015°26'0 0.0
2017-Nov-11 17:27N 28°08' W 015°26'0 0.0
2017-Nov-11 16:57N 28°08' W 015°26'0 0.0
2017-Nov-11 16:24N 28°08' W 015°26'0 0.0
2017-Nov-11 16:00N 28°08' W 015°26'0 0.0
2017-Nov-11 15:30N 28°08' W 015°26'0 0.0
2017-Nov-11 15:00N 28°08' W 015°26'0 0.0
2017-Nov-11 14:30N 28°08' W 015°26'0 0.0
2017-Nov-11 13:57N 28°08' W 015°26'0 0.0
2017-Nov-11 13:30N 28°08' W 015°26'0 0.0
2017-Nov-11 13:00N 28°08' W 015°26'0 0.0
2017-Nov-11 12:30N 28°08' W 015°26'0 0.0
2017-Nov-11 12:00N 28°08' W 015°26'0 0.0
2017-Nov-11 11:18N 28°08' W 015°26'0 0.0
2017-Nov-11 11:00N 28°08' W 015°26'0 0.0
2017-Nov-11 10:30N 28°08' W 015°26'0 0.0
2017-Nov-11 10:00N 28°08' W 015°26'0 0.0
2017-Nov-11 09:21N 28°08' W 015°26'0 0.0
2017-Nov-11 08:51N 28°08' W 015°26'0 0.0
2017-Nov-11 08:24N 28°08' W 015°26'0 0.0
2017-Nov-11 07:54N 28°08' W 015°26'0 0.0
2017-Nov-11 07:24N 28°08' W 015°26'0 0.0
2017-Nov-11 06:54N 28°08' W 015°26'0 0.0
2017-Nov-11 06:24N 28°08' W 015°26'0 0.0
2017-Nov-11 05:57N 28°08' W 015°26'0 0.0
2017-Nov-11 05:24N 28°08' W 015°26'0 0.0
2017-Nov-11 04:42N 28°08' W 015°26'0 0.0
2017-Nov-11 04:27N 28°08' W 015°26'0 0.0
2017-Nov-11 03:57N 28°08' W 015°26'0 0.0
2017-Nov-11 03:27N 28°08' W 015°26'0 0.0
2017-Nov-11 03:00N 28°08' W 015°26'0 0.0
2017-Nov-11 02:30N 28°08' W 015°26'0 0.0
2017-Nov-11 02:00N 28°08' W 015°26'0 0.0
2017-Nov-11 01:30N 28°08' W 015°26'0 0.0
2017-Nov-11 01:00N 28°08' W 015°26'0 0.0
2017-Nov-11 00:30N 28°08' W 015°26'0 0.0
2017-Nov-11 00:00N 28°08' W 015°26'0 0.0
2017-Nov-10 23:30N 28°08' W 015°26'0 0.0
2017-Nov-10 23:00N 28°08' W 015°26'0 0.0
2017-Nov-10 22:30N 28°08' W 015°26'0 0.0
2017-Nov-10 22:00N 28°08' W 015°26'0 0.0
2017-Nov-10 21:30N 28°08' W 015°26'0 0.0
2017-Nov-10 20:51N 28°08' W 015°26'0 0.0
2017-Nov-10 20:21N 28°08' W 015°26'0 0.0
2017-Nov-10 19:54N 28°08' W 015°26'0 0.0
2017-Nov-10 19:24N 28°08' W 015°26'0 0.0
2017-Nov-10 18:54N 28°08' W 015°26'0 0.0
2017-Nov-10 18:24N 28°08' W 015°26'0 0.0
2017-Nov-10 17:54N 28°08' W 015°26'0 0.0
2017-Nov-10 17:27N 28°08' W 015°26'0 0.0
2017-Nov-10 16:51N 28°08' W 015°26'0 0.0
2017-Nov-10 16:27N 28°08' W 015°26'0 0.0
2017-Nov-10 15:57N 28°08' W 015°26'0 0.0
2017-Nov-10 15:30N 28°08' W 015°26'0 0.0
2017-Nov-10 15:00N 28°08' W 015°26'0 0.0
2017-Nov-10 14:30N 28°08' W 015°26'0 0.0
2017-Nov-10 14:00N 28°08' W 015°26'0 0.0
2017-Nov-10 13:18N 28°08' W 015°26'0 0.0
2017-Nov-10 13:00N 28°08' W 015°26'0 0.0
2017-Nov-10 12:30N 28°08' W 015°26'0 0.0
2017-Nov-10 12:00N 28°08' W 015°26'0 0.0
2017-Nov-10 11:30N 28°08' W 015°26'0 0.0
2017-Nov-10 11:00N 28°08' W 015°26'0 0.0
2017-Nov-10 10:18N 28°08' W 015°26'0 0.0
2017-Nov-10 09:48N 28°08' W 015°26'0 0.0
2017-Nov-10 09:30N 28°08' W 015°26'0 0.0
2017-Nov-10 08:51N 28°08' W 015°26'0 0.0
2017-Nov-10 08:21N 28°08' W 015°26'0 0.0
2017-Nov-10 07:54N 28°08' W 015°26'0 0.0
2017-Nov-10 07:24N 28°08' W 015°26'0 0.0
2017-Nov-10 06:51N 28°08' W 015°26'0 0.0
2017-Nov-10 06:24N 28°08' W 015°26'0 0.0
2017-Nov-10 05:54N 28°08' W 015°26'0 0.0
2017-Nov-10 05:24N 28°08' W 015°26'0 0.0
2017-Nov-10 04:42N 28°08' W 015°26'0 0.0
2017-Nov-10 04:27N 28°08' W 015°26'0 0.0
2017-Nov-10 03:57N 28°08' W 015°26'0 0.0
2017-Nov-10 03:27N 28°08' W 015°26'0 0.0
2017-Nov-10 02:57N 28°08' W 015°26'0 0.0
2017-Nov-10 02:30N 28°08' W 015°26'0 0.0
2017-Nov-10 02:00N 28°08' W 015°26'0 0.0
2017-Nov-10 01:30N 28°08' W 015°26'0 0.0
2017-Nov-10 01:00N 28°08' W 015°26'0 0.0
2017-Nov-10 00:27N 28°08' W 015°26'0 0.0
2017-Nov-10 00:00N 28°08' W 015°26'0 0.0
2017-Nov-09 23:30N 28°08' W 015°26'0 0.0
2017-Nov-09 23:00N 28°08' W 015°26'0 0.0
2017-Nov-09 22:30N 28°08' W 015°26'0 0.0
2017-Nov-09 22:00N 28°08' W 015°26'0 0.0
2017-Nov-09 21:30N 28°08' W 015°26'0 0.0
2017-Nov-09 21:00N 28°08' W 015°26'0 0.0
2017-Nov-09 20:21N 28°08' W 015°26'0 0.0
2017-Nov-09 19:51N 28°08' W 015°26'0 0.0
2017-Nov-09 19:24N 28°08' W 015°26'0 0.0
2017-Nov-09 18:54N 28°08' W 015°26'0 0.0
2017-Nov-09 18:24N 28°08' W 015°26'0 0.0
2017-Nov-09 17:54N 28°08' W 015°26'0 0.0
2017-Nov-09 17:24N 28°08' W 015°26'0 0.0
2017-Nov-09 16:57N 28°08' W 015°26'0 0.0
2017-Nov-09 16:27N 28°08' W 015°26'0 0.0
2017-Nov-09 15:57N 28°08' W 015°26'  
Track history (hours):
 
Tides and Currents Weather Stations Pressure Air Temp Water Temp Dewpoint Dewpoint Depression Visibility Wind Speed Wind Dir Waves Ship Positions

Challenger 2

Last reported at 2017-Nov-19 15:43 UTC. Time now 2017-Nov-22 20:37 UTC.
Position N 27°54' W 015°22'.

Length 22 m.

Type: Sailing vessel. MMSI: 235007000.

Date/timePositionNaut miles runAvg speedWind from/ knotsBaromVisibWave heightAir tempDewpointWater temp
2017-Nov-19 15:43N 27°54' W 015°22'3 6.1
2017-Nov-19 15:15N 27°57' W 015°21'2 5.6
2017-Nov-19 14:53N 27°59' W 015°21'2 4.4
2017-Nov-19 14:30N 28°00' W 015°22'2 3.5
2017-Nov-19 14:00N 28°02' W 015°22'2 3.7
2017-Nov-19 13:29N 28°04' W 015°23'2 4.1
2017-Nov-19 13:00N 28°06' W 015°24'1 3.0
2017-Nov-19 12:30N 28°07' W 015°25'1 1.1
2017-Nov-19 11:56N 28°06' W 015°24'1 1.8
2017-Nov-19 11:25N 28°07' W 015°25'1 1.2
2017-Nov-19 10:49N 28°08' W 015°26'0 0.0
2017-Nov-19 10:25N 28°08' W 015°26'0 0.0
2017-Nov-19 09:55N 28°08' W 015°26'0 0.0
2017-Nov-19 09:25N 28°08' W 015°26'0 0.0
2017-Nov-19 08:55N 28°08' W 015°26'0 0.0
2017-Nov-19 08:25N 28°08' W 015°26'0 0.0
2017-Nov-19 07:58N 28°08' W 015°26'0 0.0
2017-Nov-19 07:28N 28°08' W 015°26'0 0.0
2017-Nov-19 06:58N 28°08' W 015°26'0 0.0
2017-Nov-19 06:28N 28°08' W 015°26'0 0.0
2017-Nov-19 05:58N 28°08' W 015°26'0 0.0
2017-Nov-19 05:25N 28°08' W 015°26'0 0.0
2017-Nov-19 04:58N 28°08' W 015°26'0 0.0
2017-Nov-19 04:28N 28°08' W 015°26'0 0.0
2017-Nov-19 03:58N 28°08' W 015°26'0 0.0
2017-Nov-19 03:28N 28°08' W 015°26'0 0.0
2017-Nov-19 02:58N 28°08' W 015°26'0 0.0
2017-Nov-19 02:28N 28°08' W 015°26'0 0.0
2017-Nov-19 01:49N 28°08' W 015°26'0 0.0
2017-Nov-19 01:19N 28°08' W 015°26'0 0.0
2017-Nov-19 00:52N 28°08' W 015°26'0 0.0
2017-Nov-19 00:22N 28°08' W 015°26'0 0.0
2017-Nov-18 23:52N 28°08' W 015°26'0 0.0
2017-Nov-18 23:22N 28°08' W 015°26'0 0.0
2017-Nov-18 22:52N 28°08' W 015°26'0 0.0
2017-Nov-18 22:25N 28°08' W 015°26'0 0.0
2017-Nov-18 21:55N 28°08' W 015°26'0 0.0
2017-Nov-18 21:25N 28°08' W 015°26'0 0.0
2017-Nov-18 20:55N 28°08' W 015°26'0 0.0
2017-Nov-18 20:28N 28°08' W 015°26'0 0.0
2017-Nov-18 19:55N 28°08' W 015°26'0 0.0
2017-Nov-18 19:28N 28°08' W 015°26'0 0.0
2017-Nov-18 18:58N 28°08' W 015°26'0 0.0
2017-Nov-18 18:28N 28°08' W 015°26'0 0.0
2017-Nov-18 17:58N 28°08' W 015°26'0 0.0
2017-Nov-18 17:28N 28°08' W 015°26'0 0.0
2017-Nov-18 16:58N 28°08' W 015°26'0 0.0
2017-Nov-18 16:28N 28°08' W 015°26'0 0.0
2017-Nov-18 15:58N 28°08' W 015°26'0 0.0
2017-Nov-18 15:28N 28°08' W 015°26'0 0.0
2017-Nov-18 14:58N 28°08' W 015°26'0 0.0
2017-Nov-18 14:28N 28°08' W 015°26'0 0.0
2017-Nov-18 13:58N 28°08' W 015°26'0 0.0
2017-Nov-18 13:19N 28°08' W 015°26'0 0.0
2017-Nov-18 12:49N 28°08' W 015°26'0 0.0
2017-Nov-18 12:22N 28°08' W 015°26'0 0.0
2017-Nov-18 11:52N 28°08' W 015°26'0 0.0
2017-Nov-18 11:22N 28°08' W 015°26'0 0.0
2017-Nov-18 10:52N 28°08' W 015°26'0 0.0
2017-Nov-18 10:22N 28°08' W 015°26'0 0.0
2017-Nov-18 09:55N 28°08' W 015°26'0 0.0
2017-Nov-18 09:22N 28°08' W 015°26'0 0.0
2017-Nov-18 08:55N 28°08' W 015°26'0 0.0
2017-Nov-18 08:25N 28°08' W 015°26'0 0.0
2017-Nov-18 07:55N 28°08' W 015°26'0 0.0
2017-Nov-18 07:25N 28°08' W 015°26'0 0.0
2017-Nov-18 06:58N 28°08' W 015°26'0 0.0
2017-Nov-18 06:25N 28°08' W 015°26'0 0.0
2017-Nov-18 05:58N 28°08' W 015°26'0 0.0
2017-Nov-18 05:28N 28°08' W 015°26'0 0.0
2017-Nov-18 04:58N 28°08' W 015°26'0 0.0
2017-Nov-18 04:28N 28°08' W 015°26'0 0.0
2017-Nov-18 03:58N 28°08' W 015°26'0 0.0
2017-Nov-18 03:28N 28°08' W 015°26'0 0.0
2017-Nov-18 02:58N 28°08' W 015°26'0 0.0
2017-Nov-18 02:19N 28°08' W 015°26'0 0.0
2017-Nov-18 01:49N 28°08' W 015°26'0 0.0
2017-Nov-18 01:19N 28°08' W 015°26'0 0.0
2017-Nov-18 00:49N 28°08' W 015°26'0 0.0
2017-Nov-18 00:22N 28°08' W 015°26'0 0.0
2017-Nov-17 23:52N 28°08' W 015°26'0 0.0
2017-Nov-17 23:19N 28°08' W 015°26'0 0.0
2017-Nov-17 22:52N 28°08' W 015°26'0 0.0
2017-Nov-17 22:22N 28°08' W 015°26'0 0.0
2017-Nov-17 21:52N 28°08' W 015°26'0 0.0
2017-Nov-17 21:25N 28°08' W 015°26'0 0.0
2017-Nov-17 20:55N 28°08' W 015°26'0 0.0
2017-Nov-17 20:25N 28°08' W 015°26'0 0.0
2017-Nov-17 19:55N 28°08' W 015°26'0 0.0
2017-Nov-17 19:25N 28°08' W 015°26'0 0.0
2017-Nov-17 18:58N 28°08' W 015°26'0 0.0
2017-Nov-17 18:28N 28°08' W 015°26'0 0.0
2017-Nov-17 17:55N 28°08' W 015°26'0 0.0
2017-Nov-17 17:28N 28°08' W 015°26'0 0.0
2017-Nov-17 16:55N 28°08' W 015°26'0 0.0
2017-Nov-17 16:28N 28°08' W 015°26'0 0.0
2017-Nov-17 15:55N 28°08' W 015°26'0 0.0
2017-Nov-17 15:28N 28°08' W 015°26'0 0.0
2017-Nov-17 14:58N 28°08' W 015°26'0 0.0
2017-Nov-17 14:28N 28°08' W 015°26'0 0.0
2017-Nov-17 13:58N 28°08' W 015°26'0 0.0
2017-Nov-17 13:28N 28°08' W 015°26'0 0.0
2017-Nov-17 12:49N 28°08' W 015°26'0 0.0
2017-Nov-17 12:19N 28°08' W 015°26'0 0.2
2017-Nov-17 12:00N 28°08' W 015°25'0 0.1
2017-Nov-17 11:23N 28°08' W 015°26'0 0.0
2017-Nov-17 10:56N 28°08' W 015°26'0 0.0
2017-Nov-17 10:23N 28°08' W 015°26'0 0.0
2017-Nov-17 09:56N 28°08' W 015°26'0 0.0
2017-Nov-17 09:26N 28°08' W 015°26'0 0.0
2017-Nov-17 08:56N 28°08' W 015°26'0 0.0
2017-Nov-17 08:23N 28°08' W 015°26'0 0.0
2017-Nov-17 07:56N 28°08' W 015°26'0 0.0
2017-Nov-17 07:29N 28°08' W 015°26'0 0.0
2017-Nov-17 06:59N 28°08' W 015°26'0 0.0
2017-Nov-17 06:29N 28°08' W 015°26'0 0.0
2017-Nov-17 05:59N 28°08' W 015°26'0 0.0
2017-Nov-17 05:29N 28°08' W 015°26'0 0.0
2017-Nov-17 04:59N 28°08' W 015°26'0 0.0
2017-Nov-17 04:29N 28°08' W 015°26'0 0.0
2017-Nov-17 03:59N 28°08' W 015°26'0 0.0
2017-Nov-17 03:29N 28°08' W 015°26'0 0.0
2017-Nov-17 02:59N 28°08' W 015°26'0 0.0
2017-Nov-17 02:29N 28°08' W 015°26'0 0.0
2017-Nov-17 01:59N 28°08' W 015°26'0 0.0
2017-Nov-17 01:20N 28°08' W 015°26'0 0.0
2017-Nov-17 00:50N 28°08' W 015°26'0 0.0
2017-Nov-17 00:17N 28°08' W 015°26'0 0.0
2017-Nov-16 23:53N 28°08' W 015°26'0 0.0
2017-Nov-16 23:23N 28°08' W 015°26'0 0.0
2017-Nov-16 22:53N 28°08' W 015°26'0 0.0
2017-Nov-16 22:23N 28°08' W 015°26'0 0.0
2017-Nov-16 21:56N 28°08' W 015°26'0 0.0
2017-Nov-16 21:26N 28°08' W 015°26'0 0.0
2017-Nov-16 20:56N 28°08' W 015°26'0 0.0
2017-Nov-16 20:23N 28°08' W 015°26'0 0.0
2017-Nov-16 19:56N 28°08' W 015°26'0 0.0
2017-Nov-16 19:29N 28°08' W 015°26'0 0.0
2017-Nov-16 18:59N 28°08' W 015°26'0 0.0
2017-Nov-16 18:29N 28°08' W 015°26'0 0.0
2017-Nov-16 17:59N 28°08' W 015°26'0 0.0
2017-Nov-16 17:29N 28°08' W 015°26'0 0.0
2017-Nov-16 16:59N 28°08' W 015°26'0 0.0
2017-Nov-16 16:29N 28°08' W 015°26'0 0.0
2017-Nov-16 15:59N 28°08' W 015°26'0 0.0
2017-Nov-16 15:29N 28°08' W 015°26'0 0.0
2017-Nov-16 14:59N 28°08' W 015°26'0 0.0
2017-Nov-16 14:29N 28°08' W 015°26'0 0.0
2017-Nov-16 13:59N 28°08' W 015°26'0 0.0
2017-Nov-16 13:29N 28°08' W 015°26'0 0.0
2017-Nov-16 12:50N 28°08' W 015°26'0 0.0
2017-Nov-16 12:20N 28°08' W 015°26'0 0.0
2017-Nov-16 11:53N 28°08' W 015°26'0 0.0
2017-Nov-16 11:23N 28°08' W 015°26'0 0.0
2017-Nov-16 10:53N 28°08' W 015°26'0 0.0
2017-Nov-16 10:23N 28°08' W 015°26'0 0.0
2017-Nov-16 09:53N 28°08' W 015°26'0 0.0
2017-Nov-16 09:26N 28°08' W 015°26'0 0.0
2017-Nov-16 08:53N 28°08' W 015°26'0 0.0
2017-Nov-16 08:26N 28°08' W 015°26'0 0.0
2017-Nov-16 07:56N 28°08' W 015°26'0 0.0
2017-Nov-16 07:26N 28°08' W 015°26'0 0.0
2017-Nov-16 06:59N 28°08' W 015°26'0 0.0
2017-Nov-16 06:29N 28°08' W 015°26'0 0.0
2017-Nov-16 05:59N 28°08' W 015°26'0 0.0
2017-Nov-16 05:29N 28°08' W 015°26'0 0.0
2017-Nov-16 04:59N 28°08' W 015°26'0 0.0
2017-Nov-16 04:29N 28°08' W 015°26'0 0.0
2017-Nov-16 03:59N 28°08' W 015°26'0 0.0
2017-Nov-16 03:29N 28°08' W 015°26'0 0.0
2017-Nov-16 02:59N 28°08' W 015°26'0 0.0
2017-Nov-16 02:29N 28°08' W 015°26'0 0.0
2017-Nov-16 01:59N 28°08' W 015°26'0 0.0
2017-Nov-16 01:29N 28°08' W 015°26'0 0.0
2017-Nov-16 00:50N 28°08' W 015°26'0 0.0
2017-Nov-16 00:20N 28°08' W 015°26'0 0.0
2017-Nov-15 23:53N 28°08' W 015°26'0 0.0
2017-Nov-15 23:23N 28°08' W 015°26'0 0.0
2017-Nov-15 22:53N 28°08' W 015°26'0 0.0
2017-Nov-15 22:23N 28°08' W 015°26'0 0.0
2017-Nov-15 21:53N 28°08' W 015°26'0 0.0
2017-Nov-15 21:23N 28°08' W 015°26'0 0.0
2017-Nov-15 20:56N 28°08' W 015°26'0 0.0
2017-Nov-15 20:26N 28°08' W 015°26'0 0.0
2017-Nov-15 19:56N 28°08' W 015°26'0 0.0
2017-Nov-15 19:26N 28°08' W 015°26'0 0.0
2017-Nov-15 18:59N 28°08' W 015°26'0 0.0
2017-Nov-15 18:29N 28°08' W 015°26'0 0.0
2017-Nov-15 17:59N 28°08' W 015°26'0 0.0
2017-Nov-15 17:29N 28°08' W 015°26'0 0.0
2017-Nov-15 16:59N 28°08' W 015°26'0 0.0
2017-Nov-15 16:29N 28°08' W 015°26'0 0.0
2017-Nov-15 15:59N 28°08' W 015°26'0 0.0
2017-Nov-15 15:26N 28°08' W 015°26'0 0.0
2017-Nov-15 14:59N 28°08' W 015°26'0 0.0
2017-Nov-15 14:29N 28°08' W 015°26'0 0.0
2017-Nov-15 13:59N 28°08' W 015°26'0 0.0
2017-Nov-15 13:29N 28°08' W 015°26'0 0.0
2017-Nov-15 12:59N 28°08' W 015°26'0 0.0
2017-Nov-15 12:20N 28°08' W 015°26'0 0.0
2017-Nov-15 11:50N 28°08' W 015°26'0 0.0
2017-Nov-15 11:23N 28°08' W 015°26'0 0.0
2017-Nov-15 10:50N 28°08' W 015°26'0 0.0
2017-Nov-15 10:23N 28°08' W 015°26'0 0.0
2017-Nov-15 09:53N 28°08' W 015°26'0 0.0
2017-Nov-15 09:08N 28°08' W 015°26'0 0.0
2017-Nov-15 08:56N 28°08' W 015°26'0 0.0
2017-Nov-15 08:26N 28°08' W 015°26'0 0.0
2017-Nov-15 07:56N 28°08' W 015°26'0 0.0
2017-Nov-15 07:26N 28°08' W 015°26'0 0.0
2017-Nov-15 06:56N 28°08' W 015°26'0 0.0
2017-Nov-15 06:29N 28°08' W 015°26'0 0.0
2017-Nov-15 05:59N 28°08' W 015°26'0 0.0
2017-Nov-15 05:29N 28°08' W 015°26'0 0.0
2017-Nov-15 04:59N 28°08' W 015°26'0 0.0
2017-Nov-15 04:29N 28°08' W 015°26'0 0.0
2017-Nov-15 03:59N 28°08' W 015°26'0 0.0
2017-Nov-15 03:29N 28°08' W 015°26'0 0.0
2017-Nov-15 02:59N 28°08' W 015°26'0 0.0
2017-Nov-15 02:29N 28°08' W 015°26'0 0.0
2017-Nov-15 01:59N 28°08' W 015°26'0 0.0
2017-Nov-15 01:29N 28°08' W 015°26'0 0.0
2017-Nov-15 00:59N 28°08' W 015°26'0 0.0
2017-Nov-15 00:29N 28°08' W 015°26'0 0.0
2017-Nov-14 23:50N 28°08' W 015°26'0 0.0
2017-Nov-14 23:20N 28°08' W 015°26'0 0.0
2017-Nov-14 22:53N 28°08' W 015°26'0 0.0
2017-Nov-14 22:23N 28°08' W 015°26'0 0.0
2017-Nov-14 21:53N 28°08' W 015°26'0 0.0
2017-Nov-14 21:23N 28°08' W 015°26'0 0.0
2017-Nov-14 20:53N 28°08' W 015°26'0 0.0
2017-Nov-14 20:23N 28°08' W 015°26'0 0.0
2017-Nov-14 19:56N 28°08' W 015°26'0 0.0
2017-Nov-14 19:26N 28°08' W 015°26'0 0.0
2017-Nov-14 18:56N 28°08' W 015°26'0 0.0
2017-Nov-14 18:26N 28°08' W 015°26'0 0.0
2017-Nov-14 17:59N 28°08' W 015°26'0 0.0
2017-Nov-14 17:29N 28°08' W 015°26'0 0.0
2017-Nov-14 16:59N 28°08' W 015°26'0 0.0
2017-Nov-14 16:26N 28°08' W 015°26'0 0.0
2017-Nov-14 15:59N 28°08' W 015°26'0 0.0
2017-Nov-14 15:29N 28°08' W 015°26'0 0.0
2017-Nov-14 14:59N 28°08' W 015°26'0 0.0
2017-Nov-14 14:29N 28°08' W 015°26'0 0.0
2017-Nov-14 13:59N 28°08' W 015°26'0 0.0
2017-Nov-14 13:29N 28°08' W 015°26'0 0.0
2017-Nov-14 12:50N 28°08' W 015°26'0 0.0
2017-Nov-14 12:29N 28°08' W 015°26'0 0.0
2017-Nov-14 11:35N 28°08' W 015°26'0 0.0
2017-Nov-14 11:20N 28°08' W 015°26'0 0.0
2017-Nov-14 10:47N 28°08' W 015°26'0 0.0
2017-Nov-14 10:23N 28°08' W 015°26'0 0.0
2017-Nov-14 09:53N 28°08' W 015°26'0 0.0
2017-Nov-14 09:23N 28°08' W 015°26'0 0.0
2017-Nov-14 08:53N 28°08' W 015°26'0 0.0
2017-Nov-14 08:26N 28°08' W 015°26'0 0.0
2017-Nov-14 07:53N 28°08' W 015°26'0 0.0
2017-Nov-14 07:26N 28°08' W 015°26'0 0.0
2017-Nov-14 06:56N 28°08' W 015°26'0 0.0
2017-Nov-14 06:26N 28°08' W 015°26'0 0.0
2017-Nov-14 05:56N 28°08' W 015°26'0 0.0
2017-Nov-14 05:29N 28°08' W 015°26'0 0.0
2017-Nov-14 04:59N 28°08' W 015°26'0 0.0
2017-Nov-14 04:29N 28°08' W 015°26'0 0.0
2017-Nov-14 03:59N 28°08' W 015°26'0 0.0
2017-Nov-14 03:29N 28°08' W 015°26'0 0.0
2017-Nov-14 02:59N 28°08' W 015°26'0 0.0
2017-Nov-14 02:29N 28°08' W 015°26'0 0.0
2017-Nov-14 01:59N 28°08' W 015°26'0 0.0
2017-Nov-14 01:29N 28°08' W 015°26'0 0.0
2017-Nov-14 00:59N 28°08' W 015°26'0 0.0
2017-Nov-14 00:29N 28°08' W 015°26'0 0.0
2017-Nov-13 23:59N 28°08' W 015°26'0 0.0
2017-Nov-13 23:29N 28°08' W 015°26'0 0.0
2017-Nov-13 22:50N 28°08' W 015°26'0 0.0
2017-Nov-13 22:20N 28°08' W 015°26'0 0.0
2017-Nov-13 21:53N 28°08' W 015°26'0 0.0
2017-Nov-13 02:00N 28°08' W 015°26'0 0.0
2017-Nov-13 01:30N 28°08' W 015°26'0 0.0
2017-Nov-13 00:48N 28°08' W 015°26'0 0.0
2017-Nov-13 00:30N 28°08' W 015°26'0 0.0
2017-Nov-13 00:00N 28°08' W 015°26'0 0.0
2017-Nov-12 23:30N 28°08' W 015°26'0 0.0
2017-Nov-12 22:51N 28°08' W 015°26'0 0.0
2017-Nov-12 22:21N 28°08' W 015°26'0 0.0
2017-Nov-12 21:51N 28°08' W 015°26'0 0.0
2017-Nov-12 21:24N 28°08' W 015°26'0 0.0
2017-Nov-12 20:54N 28°08' W 015°26'0 0.0
2017-Nov-12 20:24N 28°08' W 015°26'0 0.0
2017-Nov-12 19:54N 28°08' W 015°26'0 0.0
2017-Nov-12 19:24N 28°08' W 015°26'0 0.0
2017-Nov-12 18:57N 28°08' W 015°26'0 0.0
2017-Nov-12 18:27N 28°08' W 015°26'0 0.0
2017-Nov-12 17:57N 28°08' W 015°26'0 0.0
2017-Nov-12 17:27N 28°08' W 015°26'0 0.0
2017-Nov-12 16:57N 28°08' W 015°26'0 0.0
2017-Nov-12 16:30N 28°08' W 015°26'0 0.0
2017-Nov-12 15:57N 28°08' W 015°26'0 0.0
2017-Nov-12 15:30N 28°08' W 015°26'0 0.0
2017-Nov-12 15:00N 28°08' W 015°26'0 0.0
2017-Nov-12 14:30N 28°08' W 015°26'0 0.0
2017-Nov-12 14:00N 28°08' W 015°26'0 0.0
2017-Nov-12 13:30N 28°08' W 015°26'0 0.0
2017-Nov-12 13:00N 28°08' W 015°26'0 0.0
2017-Nov-12 12:30N 28°08' W 015°26'0 0.0
2017-Nov-12 12:00N 28°08' W 015°26'0 0.0
2017-Nov-12 11:30N 28°08' W 015°26'0 0.0
2017-Nov-12 11:00N 28°08' W 015°26'0 0.0
2017-Nov-12 10:21N 28°08' W 015°26'0 0.0
2017-Nov-12 09:51N 28°08' W 015°26'0 0.0
2017-Nov-12 09:21N 28°08' W 015°26'0 0.0
2017-Nov-12 08:54N 28°08' W 015°26'0 0.0
2017-Nov-12 08:24N 28°08' W 015°26'0 0.0
2017-Nov-12 07:54N 28°08' W 015°26'0 0.0
2017-Nov-12 07:24N 28°08' W 015°26'0 0.0
2017-Nov-12 06:54N 28°08' W 015°26'0 0.0
2017-Nov-12 06:24N 28°08' W 015°26'0 0.0
2017-Nov-12 05:57N 28°08' W 015°26'0 0.0
2017-Nov-12 05:27N 28°08' W 015°26'0 0.0
2017-Nov-12 04:57N 28°08' W 015°26'0 0.0
2017-Nov-12 04:27N 28°08' W 015°26'0 0.0
2017-Nov-12 04:00N 28°08' W 015°26'0 0.0
2017-Nov-12 03:30N 28°08' W 015°26'0 0.0
2017-Nov-12 03:00N 28°08' W 015°26'0 0.0
2017-Nov-12 02:30N 28°08' W 015°26'0 0.0
2017-Nov-12 02:00N 28°08' W 015°26'0 0.0
2017-Nov-12 01:30N 28°08' W 015°26'0 0.0
2017-Nov-12 01:00N 28°08' W 015°26'0 0.0
2017-Nov-12 00:30N 28°08' W 015°26'0 0.0
2017-Nov-12 00:00N 28°08' W 015°26'0 0.0
2017-Nov-11 23:30N 28°08' W 015°26'0 0.0
2017-Nov-11 23:00N 28°08' W 015°26'0 0.0
2017-Nov-11 22:30N 28°08' W 015°26'0 0.0
2017-Nov-11 21:51N 28°08' W 015°26'0 0.0
2017-Nov-11 21:21N 28°08' W 015°26'0 0.0
2017-Nov-11 20:54N 28°08' W 015°26'0 0.0
2017-Nov-11 20:24N 28°08' W 015°26'0 0.0
2017-Nov-11 19:54N 28°08' W 015°26'0 0.0
2017-Nov-11 19:21N 28°08' W 015°26'0 0.0
2017-Nov-11 18:54N 28°08' W 015°26'0 0.0
2017-Nov-11 18:24N 28°08' W 015°26'0 0.0
2017-Nov-11 17:57N 28°08' W 015°26'0 0.0
2017-Nov-11 17:27N 28°08' W 015°26'0 0.0
2017-Nov-11 16:57N 28°08' W 015°26'0 0.0
2017-Nov-11 16:24N 28°08' W 015°26'0 0.0
2017-Nov-11 16:00N 28°08' W 015°26'0 0.0
2017-Nov-11 15:30N 28°08' W 015°26'0 0.0
2017-Nov-11 15:00N 28°08' W 015°26'0 0.0
2017-Nov-11 14:30N 28°08' W 015°26'0 0.0
2017-Nov-11 13:57N 28°08' W 015°26'0 0.0
2017-Nov-11 13:30N 28°08' W 015°26'0 0.0
2017-Nov-11 13:00N 28°08' W 015°26'0 0.0
2017-Nov-11 12:30N 28°08' W 015°26'0 0.0
2017-Nov-11 12:00N 28°08' W 015°26'0 0.0
2017-Nov-11 11:18N 28°08' W 015°26'0 0.0
2017-Nov-11 11:00N 28°08' W 015°26'0 0.0
2017-Nov-11 10:30N 28°08' W 015°26'0 0.0
2017-Nov-11 10:00N 28°08' W 015°26'0 0.0
2017-Nov-11 09:21N 28°08' W 015°26'0 0.0
2017-Nov-11 08:51N 28°08' W 015°26'0 0.0
2017-Nov-11 08:24N 28°08' W 015°26'0 0.0
2017-Nov-11 07:54N 28°08' W 015°26'0 0.0
2017-Nov-11 07:24N 28°08' W 015°26'0 0.0
2017-Nov-11 06:54N 28°08' W 015°26'0 0.0
2017-Nov-11 06:24N 28°08' W 015°26'0 0.0
2017-Nov-11 05:57N 28°08' W 015°26'0 0.0
2017-Nov-11 05:24N 28°08' W 015°26'0 0.0
2017-Nov-11 04:42N 28°08' W 015°26'0 0.0
2017-Nov-11 04:27N 28°08' W 015°26'0 0.0
2017-Nov-11 03:57N 28°08' W 015°26'0 0.0
2017-Nov-11 03:27N 28°08' W 015°26'0 0.0
2017-Nov-11 03:00N 28°08' W 015°26'0 0.0
2017-Nov-11 02:30N 28°08' W 015°26'0 0.0
2017-Nov-11 02:00N 28°08' W 015°26'0 0.0
2017-Nov-11 01:30N 28°08' W 015°26'0 0.0
2017-Nov-11 01:00N 28°08' W 015°26'0 0.0
2017-Nov-11 00:30N 28°08' W 015°26'0 0.0
2017-Nov-11 00:00N 28°08' W 015°26'0 0.0
2017-Nov-10 23:30N 28°08' W 015°26'0 0.0
2017-Nov-10 23:00N 28°08' W 015°26'0 0.0
2017-Nov-10 22:30N 28°08' W 015°26'0 0.0
2017-Nov-10 22:00N 28°08' W 015°26'0 0.0
2017-Nov-10 21:30N 28°08' W 015°26'0 0.0
2017-Nov-10 20:51N 28°08' W 015°26'0 0.0
2017-Nov-10 20:21N 28°08' W 015°26'0 0.0
2017-Nov-10 19:54N 28°08' W 015°26'0 0.0
2017-Nov-10 19:24N 28°08' W 015°26'0 0.0
2017-Nov-10 18:54N 28°08' W 015°26'0 0.0
2017-Nov-10 18:24N 28°08' W 015°26'0 0.0
2017-Nov-10 17:54N 28°08' W 015°26'0 0.0
2017-Nov-10 17:27N 28°08' W 015°26'0 0.0
2017-Nov-10 16:51N 28°08' W 015°26'0 0.0
2017-Nov-10 16:27N 28°08' W 015°26'0 0.0
2017-Nov-10 15:57N 28°08' W 015°26'0 0.0
2017-Nov-10 15:30N 28°08' W 015°26'0 0.0
2017-Nov-10 15:00N 28°08' W 015°26'0 0.0
2017-Nov-10 14:30N 28°08' W 015°26'0 0.0
2017-Nov-10 14:00N 28°08' W 015°26'0 0.0
2017-Nov-10 13:18N 28°08' W 015°26'0 0.0
2017-Nov-10 13:00N 28°08' W 015°26'0 0.0
2017-Nov-10 12:30N 28°08' W 015°26'0 0.0
2017-Nov-10 12:00N 28°08' W 015°26'0 0.0
2017-Nov-10 11:30N 28°08' W 015°26'0 0.0
2017-Nov-10 11:00N 28°08' W 015°26'0 0.0
2017-Nov-10 10:18N 28°08' W 015°26'0 0.0
2017-Nov-10 09:48N 28°08' W 015°26'0 0.0
2017-Nov-10 09:30N 28°08' W 015°26'0 0.0
2017-Nov-10 08:51N 28°08' W 015°26'0 0.0
2017-Nov-10 08:21N 28°08' W 015°26'0 0.0
2017-Nov-10 07:54N 28°08' W 015°26'0 0.0
2017-Nov-10 07:24N 28°08' W 015°26'0 0.0
2017-Nov-10 06:51N 28°08' W 015°26'0 0.0
2017-Nov-10 06:24N 28°08' W 015°26'0 0.0
2017-Nov-10 05:54N 28°08' W 015°26'0 0.0
2017-Nov-10 05:24N 28°08' W 015°26'0 0.0
2017-Nov-10 04:42N 28°08' W 015°26'0 0.0
2017-Nov-10 04:27N 28°08' W 015°26'0 0.0
2017-Nov-10 03:57N 28°08' W 015°26'0 0.0
2017-Nov-10 03:27N 28°08' W 015°26'0 0.0
2017-Nov-10 02:57N 28°08' W 015°26'0 0.0
2017-Nov-10 02:30N 28°08' W 015°26'0 0.0
2017-Nov-10 02:00N 28°08' W 015°26'0 0.0
2017-Nov-10 01:30N 28°08' W 015°26'0 0.0
2017-Nov-10 01:00N 28°08' W 015°26'0 0.0
2017-Nov-10 00:27N 28°08' W 015°26'0 0.0
2017-Nov-10 00:00N 28°08' W 015°26'0 0.0
2017-Nov-09 23:30N 28°08' W 015°26'0 0.0
2017-Nov-09 23:00N 28°08' W 015°26'0 0.0
2017-Nov-09 22:30N 28°08' W 015°26'0 0.0
2017-Nov-09 22:00N 28°08' W 015°26'0 0.0
2017-Nov-09 21:30N 28°08' W 015°26'0 0.0
2017-Nov-09 21:00N 28°08' W 015°26'0 0.0
2017-Nov-09 20:21N 28°08' W 015°26'0 0.0
2017-Nov-09 19:51N 28°08' W 015°26'0 0.0
2017-Nov-09 19:24N 28°08' W 015°26'0 0.0
2017-Nov-09 18:54N 28°08' W 015°26'0 0.0
2017-Nov-09 18:24N 28°08' W 015°26'0 0.0
2017-Nov-09 17:54N 28°08' W 015°26'0 0.0
2017-Nov-09 17:24N 28°08' W 015°26'0 0.0
2017-Nov-09 16:57N 28°08' W 015°26'0 0.0
2017-Nov-09 16:27N 28°08' W 015°26'0 0.0
2017-Nov-09 15:57N 28°08' W 015°26'  

Dump ship's entire track history